Time,TemperatureF,DewpointF,PressureIn,WindDirection,WindDirectionDegrees,WindSpeedMPH,WindSpeedGustMPH,Humidity,HourlyPrecipIn,Conditions,Clouds,dailyrainin,SoftwareType,DateUTC
2013-02-05 00:00:00,33.1,25.7,29.90,West,271,0.0,3.0,74,0.00,,---,0.00,VWS V14.01,2013-02-05 05:00:00,
2013-02-05 00:05:00,33.7,26.6,29.90,West,271,0.0,1.0,75,0.00,,---,0.00,VWS V14.01,2013-02-05 05:05:00,
2013-02-05 00:10:00,34.1,27.0,29.90,West,265,0.0,2.0,75,0.00,,---,0.00,VWS V14.01,2013-02-05 05:10:00,
2013-02-05 00:15:00,34.4,27.3,29.90,SSW,202,2.0,4.0,75,0.00,,---,0.00,VWS V14.01,2013-02-05 05:15:00,
2013-02-05 00:20:00,35.4,28.9,29.90,WSW,246,3.0,4.0,77,0.00,,---,0.00,VWS V14.01,2013-02-05 05:20:00,
2013-02-05 00:25:00,36.1,29.9,29.90,SW,220,1.0,4.0,78,0.00,,---,0.00,VWS V14.01,2013-02-05 05:25:00,
2013-02-05 00:30:00,36.6,30.4,29.90,SW,220,2.0,4.0,78,0.00,,---,0.00,VWS V14.01,2013-02-05 05:30:00,
2013-02-05 00:35:00,36.9,30.7,29.89,SW,219,0.0,1.0,78,0.00,,---,0.00,VWS V14.01,2013-02-05 05:35:00,
2013-02-05 00:40:00,37.0,30.8,29.89,SW,220,0.0,1.0,78,0.00,,---,0.00,VWS V14.01,2013-02-05 05:40:00,
2013-02-05 00:45:00,37.1,30.9,29.88,SW,220,0.0,1.0,78,0.00,,---,0.00,VWS V14.01,2013-02-05 05:45:00,
2013-02-05 00:50:00,37.1,30.9,29.88,SW,220,0.0,1.0,78,0.00,,---,0.00,VWS V14.01,2013-02-05 05:50:00,
2013-02-05 00:55:00,37.1,30.9,29.88,SW,220,0.0,1.0,78,0.00,,---,0.00,VWS V14.01,2013-02-05 05:55:00,
2013-02-05 01:00:00,37.0,30.8,29.88,SW,220,1.0,1.0,78,0.00,,---,0.00,VWS V14.01,2013-02-05 06:00:00,
2013-02-05 01:05:00,37.0,30.8,29.88,SW,220,0.0,1.0,78,0.00,,---,0.00,VWS V14.01,2013-02-05 06:05:00,
2013-02-05 01:10:00,36.8,30.6,29.88,SW,219,2.0,3.0,78,0.00,,---,0.00,VWS V14.01,2013-02-05 06:10:00,
2013-02-05 01:15:00,36.5,30.0,29.88,SW,220,2.0,3.0,77,0.00,,---,0.00,VWS V14.01,2013-02-05 06:15:00,
2013-02-05 01:20:00,36.1,29.3,29.88,SW,221,2.0,3.0,76,0.00,,---,0.00,VWS V14.01,2013-02-05 06:20:00,
2013-02-05 01:25:00,35.9,28.8,29.88,SW,221,1.0,3.0,75,0.00,,---,0.00,VWS V14.01,2013-02-05 06:25:00,
2013-02-05 01:30:00,35.8,28.7,29.88,SW,220,0.0,3.0,75,0.00,,---,0.00,VWS V14.01,2013-02-05 06:30:00,
2013-02-05 01:35:00,35.7,28.6,29.88,SW,220,1.0,2.0,75,0.00,,---,0.00,VWS V14.01,2013-02-05 06:35:00,
2013-02-05 01:40:00,35.7,28.6,29.88,SW,219,0.0,3.0,75,0.00,,---,0.00,VWS V14.01,2013-02-05 06:40:00,
2013-02-05 01:45:00,35.7,28.2,29.88,SW,221,0.0,3.0,74,0.00,,---,0.00,VWS V14.01,2013-02-05 06:45:00,
2013-02-05 01:50:00,35.7,28.2,29.88,SW,221,0.0,3.0,74,0.00,,---,0.00,VWS V14.01,2013-02-05 06:50:00,
2013-02-05 01:55:00,35.6,28.1,29.88,SW,221,0.0,3.0,74,0.00,,---,0.00,VWS V14.01,2013-02-05 06:55:00,
2013-02-05 02:00:00,35.6,28.5,29.88,SW,220,0.0,3.0,75,0.00,,---,0.00,VWS V14.01,2013-02-05 07:00:00,
2013-02-05 02:05:00,35.5,28.7,29.88,SW,219,0.0,1.0,76,0.00,,---,0.00,VWS V14.01,2013-02-05 07:05:00,
2013-02-05 02:10:00,35.4,28.9,29.87,SW,221,0.0,1.0,77,0.00,,---,0.00,VWS V14.01,2013-02-05 07:10:00,
2013-02-05 02:15:00,35.4,28.9,29.87,SW,220,0.0,1.0,77,0.00,,---,0.00,VWS V14.01,2013-02-05 07:15:00,
2013-02-05 02:20:00,35.3,28.8,29.87,SW,220,0.0,1.0,77,0.00,,---,0.00,VWS V14.01,2013-02-05 07:20:00,
2013-02-05 02:25:00,35.1,28.6,29.87,SW,220,0.0,1.0,77,0.00,,---,0.00,VWS V14.01,2013-02-05 07:25:00,
2013-02-05 02:30:00,34.9,28.4,29.87,SW,220,0.0,1.0,77,0.00,,---,0.00,VWS V14.01,2013-02-05 07:30:00,
2013-02-05 02:35:00,34.6,28.1,29.87,SW,220,0.0,0.0,77,0.00,,---,0.00,VWS V14.01,2013-02-05 07:35:00,
2013-02-05 02:40:00,34.4,28.0,29.87,SW,219,0.0,0.0,77,0.00,,---,0.00,VWS V14.01,2013-02-05 07:40:00,
2013-02-05 02:45:00,34.4,28.3,29.87,SW,220,0.0,0.0,78,0.00,,---,0.00,VWS V14.01,2013-02-05 07:45:00,
2013-02-05 02:50:00,34.4,28.6,29.87,SW,219,0.0,0.0,79,0.00,,---,0.00,VWS V14.01,2013-02-05 07:50:00,
2013-02-05 02:55:00,34.4,28.6,29.87,SW,219,0.0,0.0,79,0.00,,---,0.00,VWS V14.01,2013-02-05 07:55:00,
2013-02-05 03:00:00,34.3,28.8,29.87,SW,219,0.0,1.0,80,0.00,,---,0.00,VWS V14.01,2013-02-05 08:00:00,
2013-02-05 03:05:00,34.2,28.7,29.86,SW,220,0.0,0.0,80,0.00,,---,0.00,VWS V14.01,2013-02-05 08:05:00,
2013-02-05 03:10:00,34.3,28.8,29.86,SW,220,0.0,0.0,80,0.00,,---,0.00,VWS V14.01,2013-02-05 08:10:00,
2013-02-05 03:15:00,34.4,28.9,29.86,SW,219,0.0,0.0,80,0.00,,---,0.00,VWS V14.01,2013-02-05 08:15:00,
2013-02-05 03:20:00,34.4,29.2,29.86,SW,219,0.0,1.0,81,0.00,,---,0.00,VWS V14.01,2013-02-05 08:20:00,
2013-02-05 03:25:00,34.4,29.2,29.86,SW,220,0.0,1.0,81,0.00,,---,0.00,VWS V14.01,2013-02-05 08:25:00,
2013-02-05 03:30:00,34.4,29.2,29.86,SW,220,1.0,2.0,81,0.00,,---,0.00,VWS V14.01,2013-02-05 08:30:00,
2013-02-05 03:35:00,34.4,29.2,29.85,SW,220,0.0,1.0,81,0.00,,---,0.00,VWS V14.01,2013-02-05 08:35:00,
2013-02-05 03:40:00,34.4,29.2,29.86,SW,220,0.0,1.0,81,0.00,,---,0.00,VWS V14.01,2013-02-05 08:40:00,
2013-02-05 03:45:00,34.4,29.2,29.85,SW,219,0.0,1.0,81,0.00,,---,0.00,VWS V14.01,2013-02-05 08:45:00,
2013-02-05 03:50:00,34.4,29.5,29.85,SW,219,1.0,1.0,82,0.00,,---,0.00,VWS V14.01,2013-02-05 08:50:00,
2013-02-05 03:55:00,34.3,29.4,29.85,SW,219,0.0,2.0,82,0.00,,---,0.00,VWS V14.01,2013-02-05 08:55:00,
2013-02-05 04:00:00,34.3,29.4,29.86,SW,220,0.0,2.0,82,0.00,,---,0.00,VWS V14.01,2013-02-05 09:00:00,
2013-02-05 04:05:00,34.4,29.8,29.86,SW,220,2.0,2.0,83,0.00,,---,0.00,VWS V14.01,2013-02-05 09:05:00,
2013-02-05 04:10:00,34.6,29.7,29.86,SW,219,1.0,2.0,82,0.00,,---,0.00,VWS V14.01,2013-02-05 09:10:00,
2013-02-05 04:15:00,34.9,30.0,29.86,SW,219,0.0,2.0,82,0.00,,---,0.00,VWS V14.01,2013-02-05 09:15:00,
2013-02-05 04:20:00,35.1,29.9,29.85,SW,220,0.0,2.0,81,0.00,,---,0.00,VWS V14.01,2013-02-05 09:20:00,
2013-02-05 04:25:00,35.1,29.9,29.86,SW,219,0.0,2.0,81,0.00,,---,0.00,VWS V14.01,2013-02-05 09:25:00,
2013-02-05 04:30:00,35.0,29.8,29.86,SW,219,0.0,2.0,81,0.00,,---,0.00,VWS V14.01,2013-02-05 09:30:00,
2013-02-05 04:35:00,34.9,29.7,29.86,SW,220,1.0,1.0,81,0.00,,---,0.00,VWS V14.01,2013-02-05 09:35:00,
2013-02-05 04:40:00,35.0,29.8,29.86,SW,220,0.0,1.0,81,0.00,,---,0.00,VWS V14.01,2013-02-05 09:40:00,
2013-02-05 04:45:00,35.2,30.0,29.86,SW,220,0.0,2.0,81,0.00,,---,0.00,VWS V14.01,2013-02-05 09:45:00,
2013-02-05 04:50:00,35.4,30.2,29.86,SW,219,0.0,2.0,81,0.00,,---,0.00,VWS V14.01,2013-02-05 09:50:00,
2013-02-05 04:55:00,35.7,30.1,29.85,SW,220,0.0,2.0,80,0.00,,---,0.00,VWS V14.01,2013-02-05 09:55:00,
2013-02-05 05:00:00,35.8,30.2,29.85,SW,219,0.0,2.0,80,0.00,,---,0.00,VWS V14.01,2013-02-05 10:00:00,
2013-02-05 05:05:00,35.9,30.3,29.86,SW,220,0.0,0.0,80,0.00,,---,0.00,VWS V14.01,2013-02-05 10:05:00,
2013-02-05 05:10:00,35.9,30.0,29.86,SW,220,1.0,1.0,79,0.00,,---,0.00,VWS V14.01,2013-02-05 10:10:00,
2013-02-05 05:14:00,35.7,30.1,29.86,SW,220,0.0,1.0,80,0.00,,---,0.00,VWS V14.01,2013-02-05 10:14:00,
2013-02-05 05:19:00,35.5,30.0,29.86,SW,220,0.0,1.0,80,0.00,,---,0.00,VWS V14.01,2013-02-05 10:19:00,
2013-02-05 05:24:00,35.4,29.9,29.86,SW,220,0.0,1.0,80,0.00,,---,0.00,VWS V14.01,2013-02-05 10:24:00,
2013-02-05 05:29:00,35.2,30.0,29.86,SW,220,0.0,1.0,81,0.00,,---,0.00,VWS V14.01,2013-02-05 10:29:00,
2013-02-05 05:34:00,35.2,30.0,29.86,SW,220,0.0,1.0,81,0.00,,---,0.00,VWS V14.01,2013-02-05 10:34:00,
2013-02-05 05:39:00,35.3,30.1,29.86,SW,220,0.0,1.0,81,0.00,,---,0.00,VWS V14.01,2013-02-05 10:39:00,
2013-02-05 05:44:00,35.5,30.3,29.86,SW,219,0.0,1.0,81,0.00,,---,0.00,VWS V14.01,2013-02-05 10:44:00,
2013-02-05 05:49:00,35.6,30.4,29.86,SW,220,0.0,1.0,81,0.00,,---,0.00,VWS V14.01,2013-02-05 10:49:00,
2013-02-05 05:54:00,35.7,30.5,29.86,SW,219,0.0,1.0,81,0.00,,---,0.00,VWS V14.01,2013-02-05 10:54:00,
2013-02-05 05:59:00,35.6,30.4,29.86,SW,219,0.0,1.0,81,0.00,,---,0.00,VWS V14.01,2013-02-05 10:59:00,
2013-02-05 06:04:00,35.5,30.3,29.87,SW,219,0.0,0.0,81,0.00,,---,0.00,VWS V14.01,2013-02-05 11:04:00,
2013-02-05 06:09:00,35.4,30.5,29.87,SW,219,0.0,0.0,82,0.00,,---,0.00,VWS V14.01,2013-02-05 11:09:00,
2013-02-05 06:14:00,35.5,30.6,29.87,SW,220,1.0,1.0,82,0.00,,---,0.00,VWS V14.01,2013-02-05 11:14:00,
2013-02-05 06:19:00,35.5,30.6,29.87,SW,219,0.0,1.0,82,0.00,,---,0.00,VWS V14.01,2013-02-05 11:19:00,
2013-02-05 06:24:00,35.5,30.6,29.87,SW,219,0.0,1.0,82,0.00,,---,0.00,VWS V14.01,2013-02-05 11:24:00,
2013-02-05 06:29:00,35.6,30.7,29.87,SW,219,0.0,1.0,82,0.00,,---,0.00,VWS V14.01,2013-02-05 11:29:00,
2013-02-05 06:34:00,35.7,30.8,29.87,SW,219,1.0,1.0,82,0.00,,---,0.00,VWS V14.01,2013-02-05 11:34:00,
2013-02-05 06:39:00,35.7,30.8,29.87,SW,220,0.0,2.0,82,0.00,,---,0.00,VWS V14.01,2013-02-05 11:39:00,
2013-02-05 06:44:00,35.7,30.8,29.87,SW,220,0.0,2.0,82,0.00,,---,0.00,VWS V14.01,2013-02-05 11:44:00,
2013-02-05 06:49:00,36.1,31.1,29.87,SW,220,0.0,2.0,82,0.00,,---,0.00,VWS V14.01,2013-02-05 11:49:00,
2013-02-05 06:54:00,36.2,30.9,29.88,SW,219,0.0,2.0,81,0.00,,---,0.00,VWS V14.01,2013-02-05 11:54:00,
2013-02-05 06:59:00,36.3,31.0,29.88,SW,220,0.0,2.0,81,0.00,,---,0.00,VWS V14.01,2013-02-05 11:59:00,
2013-02-05 07:04:00,36.4,31.1,29.88,SW,219,0.0,0.0,81,0.00,,---,0.00,VWS V14.01,2013-02-05 12:04:00,
2013-02-05 07:09:00,36.4,31.1,29.88,SW,220,0.0,0.0,81,0.00,,---,0.00,VWS V14.01,2013-02-05 12:09:00,
2013-02-05 07:14:00,36.2,30.9,29.88,SW,220,0.0,0.0,81,0.00,,---,0.00,VWS V14.01,2013-02-05 12:14:00,
2013-02-05 07:19:00,36.0,30.8,29.88,SW,219,0.0,2.0,81,0.00,,---,0.00,VWS V14.01,2013-02-05 12:19:00,
2013-02-05 07:24:00,35.7,30.8,29.88,SW,220,0.0,2.0,82,0.00,,---,0.00,VWS V14.01,2013-02-05 12:24:00,
2013-02-05 07:29:00,35.5,30.9,29.88,SW,220,0.0,2.0,83,0.00,,---,0.00,VWS V14.01,2013-02-05 12:29:00,
2013-02-05 07:34:00,35.3,30.7,29.89,SW,220,0.0,0.0,83,0.00,,---,0.00,VWS V14.01,2013-02-05 12:34:00,
2013-02-05 07:39:00,35.4,31.1,29.89,SW,220,0.0,0.0,84,0.00,,---,0.00,VWS V14.01,2013-02-05 12:39:00,
2013-02-05 07:44:00,35.5,31.1,29.88,SW,220,0.0,0.0,84,0.00,,---,0.00,VWS V14.01,2013-02-05 12:44:00,
2013-02-05 07:49:00,35.6,31.2,29.89,SW,220,0.0,0.0,84,0.00,,---,0.00,VWS V14.01,2013-02-05 12:49:00,
2013-02-05 07:54:00,35.5,31.1,29.89,SW,219,2.0,2.0,84,0.00,,---,0.00,VWS V14.01,2013-02-05 12:54:00,
2013-02-05 07:59:00,35.5,31.5,29.89,SW,219,1.0,2.0,85,0.00,,---,0.00,VWS V14.01,2013-02-05 12:59:00,
2013-02-05 08:04:00,35.5,31.5,29.90,SW,219,0.0,2.0,85,0.00,,---,0.00,VWS V14.01,2013-02-05 13:04:00,
2013-02-05 08:09:00,35.5,31.5,29.90,SW,220,0.0,2.0,85,0.00,,---,0.00,VWS V14.01,2013-02-05 13:09:00,
2013-02-05 08:14:00,35.6,31.5,29.91,NNW,344,3.0,3.0,85,0.00,,---,0.00,VWS V14.01,2013-02-05 13:14:00,
2013-02-05 08:19:00,36.2,31.8,29.92,North,360,4.0,5.0,84,0.00,,---,0.00,VWS V14.01,2013-02-05 13:19:00,
2013-02-05 08:24:00,36.3,31.3,29.91,NE,38,3.0,6.0,82,0.00,,---,0.00,VWS V14.01,2013-02-05 13:24:00,
2013-02-05 08:29:00,36.2,30.6,29.92,NNE,33,2.0,6.0,80,0.00,,---,0.00,VWS V14.01,2013-02-05 13:29:00,
2013-02-05 08:34:00,35.9,29.7,29.92,NNE,22,3.0,6.0,78,0.00,,---,0.00,VWS V14.01,2013-02-05 13:34:00,
2013-02-05 08:39:00,35.6,29.1,29.92,NNE,22,1.0,6.0,77,0.00,,---,0.00,VWS V14.01,2013-02-05 13:39:00,
2013-02-05 08:44:00,35.4,28.6,29.92,NNE,22,2.0,6.0,76,0.00,,---,0.00,VWS V14.01,2013-02-05 13:44:00,
2013-02-05 08:49:00,35.3,28.5,29.92,NNE,19,5.0,6.0,76,0.00,,---,0.00,VWS V14.01,2013-02-05 13:49:00,
2013-02-05 08:54:00,35.1,28.3,29.92,NNE,22,2.0,6.0,76,0.00,,---,0.00,VWS V14.01,2013-02-05 13:54:00,
2013-02-05 08:59:00,35.0,28.2,29.92,North,10,2.0,6.0,76,0.00,,---,0.00,VWS V14.01,2013-02-05 13:59:00,
2013-02-05 09:04:00,34.9,27.8,29.92,North,11,3.0,4.0,75,0.00,,---,0.00,VWS V14.01,2013-02-05 14:04:00,
2013-02-05 09:09:00,34.8,27.7,29.92,North,11,2.0,4.0,75,0.00,,---,0.00,VWS V14.01,2013-02-05 14:09:00,
2013-02-05 09:14:00,34.8,28.0,29.92,ENE,75,1.0,4.0,76,0.00,,---,0.00,VWS V14.01,2013-02-05 14:14:00,
2013-02-05 09:19:00,35.0,28.2,29.91,ENE,74,2.0,4.0,76,0.00,,---,0.00,VWS V14.01,2013-02-05 14:19:00,
2013-02-05 09:24:00,35.2,28.4,29.92,North,11,2.0,4.0,76,0.00,,---,0.00,VWS V14.01,2013-02-05 14:24:00,
2013-02-05 09:29:00,35.3,28.5,29.91,North,10,3.0,4.0,76,0.00,,---,0.00,VWS V14.01,2013-02-05 14:29:00,
2013-02-05 09:34:00,35.6,28.8,29.91,North,10,3.0,3.0,76,0.00,,---,0.00,VWS V14.01,2013-02-05 14:34:00,
2013-02-05 09:39:00,36.0,28.9,29.91,NNW,337,2.0,5.0,75,0.00,,---,0.00,VWS V14.01,2013-02-05 14:39:00,
2013-02-05 09:44:00,36.4,29.2,29.91,North,360,4.0,6.0,75,0.00,,---,0.00,VWS V14.01,2013-02-05 14:44:00,
2013-02-05 09:49:00,36.8,29.6,29.91,North,351,3.0,6.0,75,0.00,,---,0.00,VWS V14.01,2013-02-05 14:49:00,
2013-02-05 09:54:00,37.2,30.0,29.91,NNW,347,4.0,6.0,75,0.00,,---,0.00,VWS V14.01,2013-02-05 14:54:00,
2013-02-05 09:59:00,37.6,30.1,29.91,North,350,3.0,6.0,74,0.00,,---,0.00,VWS V14.01,2013-02-05 14:59:00,
2013-02-05 10:04:00,37.9,30.4,29.91,North,350,3.0,5.0,74,0.00,,---,0.00,VWS V14.01,2013-02-05 15:04:00,
2013-02-05 10:09:00,38.3,30.4,29.91,NNW,328,5.0,5.0,73,0.00,,---,0.00,VWS V14.01,2013-02-05 15:09:00,
2013-02-05 10:14:00,38.4,30.2,29.92,North,5,4.0,7.0,72,0.00,,---,0.00,VWS V14.01,2013-02-05 15:14:00,
2013-02-05 10:19:00,38.6,30.4,29.92,NNW,340,5.0,7.0,72,0.00,,---,0.00,VWS V14.01,2013-02-05 15:19:00,
2013-02-05 10:24:00,38.7,30.5,29.92,North,360,3.0,7.0,72,0.00,,---,0.00,VWS V14.01,2013-02-05 15:24:00,
2013-02-05 10:29:00,38.8,30.6,29.92,North,355,4.0,7.0,72,0.00,,---,0.00,VWS V14.01,2013-02-05 15:29:00,
2013-02-05 10:34:00,38.7,30.1,29.92,North,360,2.0,5.0,71,0.00,,---,0.00,VWS V14.01,2013-02-05 15:34:00,
2013-02-05 10:39:00,38.6,30.0,29.92,North,355,3.0,5.0,71,0.00,,---,0.00,VWS V14.01,2013-02-05 15:39:00,
2013-02-05 10:44:00,38.6,30.0,29.92,NNE,33,3.0,5.0,71,0.00,,---,0.00,VWS V14.01,2013-02-05 15:44:00,
2013-02-05 10:49:00,38.6,30.0,29.92,NNW,342,5.0,6.0,71,0.00,,---,0.00,VWS V14.01,2013-02-05 15:49:00,
2013-02-05 10:54:00,38.5,30.3,29.92,NNW,344,2.0,6.0,72,0.00,,---,0.00,VWS V14.01,2013-02-05 15:54:00,
2013-02-05 10:59:00,38.5,30.3,29.92,NNW,338,2.0,6.0,72,0.00,,---,0.00,VWS V14.01,2013-02-05 15:59:00,
2013-02-05 11:04:00,38.6,30.4,29.92,NNW,338,3.0,3.0,72,0.00,,---,0.00,VWS V14.01,2013-02-05 16:04:00,
2013-02-05 11:09:00,38.7,30.1,29.92,North,5,0.0,4.0,71,0.00,,---,0.00,VWS V14.01,2013-02-05 16:09:00,
2013-02-05 11:14:00,38.9,30.3,29.92,North,360,0.0,4.0,71,0.00,,---,0.00,VWS V14.01,2013-02-05 16:14:00,
2013-02-05 11:19:00,39.1,30.5,29.92,North,5,3.0,4.0,71,0.00,,---,0.00,VWS V14.01,2013-02-05 16:19:00,
2013-02-05 11:24:00,39.3,30.7,29.91,North,360,3.0,4.0,71,0.00,,---,0.00,VWS V14.01,2013-02-05 16:24:00,
2013-02-05 11:29:00,39.5,30.5,29.91,North,5,1.0,4.0,70,0.00,,---,0.00,VWS V14.01,2013-02-05 16:29:00,
2013-02-05 11:34:00,39.7,30.7,29.91,North,5,1.0,3.0,70,0.00,,---,0.00,VWS V14.01,2013-02-05 16:34:00,
2013-02-05 11:39:00,40.0,31.0,29.91,North,355,3.0,4.0,70,0.00,,---,0.00,VWS V14.01,2013-02-05 16:39:00,
2013-02-05 11:44:00,40.3,31.3,29.91,NW,315,2.0,4.0,70,0.00,,---,0.00,VWS V14.01,2013-02-05 16:44:00,
2013-02-05 11:49:00,40.6,31.2,29.90,North,9,2.0,5.0,69,0.00,,---,0.00,VWS V14.01,2013-02-05 16:49:00,
2013-02-05 11:54:00,41.1,31.7,29.90,NNE,24,4.0,5.0,69,0.00,,---,0.00,VWS V14.01,2013-02-05 16:54:00,
2013-02-05 11:59:00,41.4,31.6,29.90,NNE,17,4.0,5.0,68,0.00,,---,0.00,VWS V14.01,2013-02-05 16:59:00,
2013-02-05 12:04:00,41.4,31.6,29.89,NNW,338,3.0,5.0,68,0.00,,---,0.00,VWS V14.01,2013-02-05 17:04:00,
2013-02-05 12:09:00,41.5,31.7,29.88,NNW,329,3.0,5.0,68,0.00,,---,0.00,VWS V14.01,2013-02-05 17:09:00,
2013-02-05 12:14:00,41.8,32.0,29.88,NW,320,4.0,6.0,68,0.00,,---,0.00,VWS V14.01,2013-02-05 17:14:00,
2013-02-05 12:19:00,42.0,32.2,29.87,North,355,4.0,6.0,68,0.00,,---,0.00,VWS V14.01,2013-02-05 17:19:00,
2013-02-05 12:24:00,42.1,32.3,29.88,North,360,5.0,7.0,68,0.00,,---,0.00,VWS V14.01,2013-02-05 17:24:00,
2013-02-05 12:29:00,42.2,32.4,29.87,North,9,3.0,7.0,68,0.00,,---,0.00,VWS V14.01,2013-02-05 17:29:00,
2013-02-05 12:34:00,42.3,32.1,29.87,North,5,3.0,5.0,67,0.00,,---,0.00,VWS V14.01,2013-02-05 17:34:00,
2013-02-05 12:39:00,42.4,32.2,29.86,NNW,333,4.0,5.0,67,0.00,,---,0.00,VWS V14.01,2013-02-05 17:39:00,
2013-02-05 12:44:00,42.7,32.5,29.86,NNW,333,1.0,5.0,67,0.00,,---,0.00,VWS V14.01,2013-02-05 17:44:00,
2013-02-05 12:49:00,43.2,33.0,29.86,NNW,333,0.0,5.0,67,0.00,,---,0.00,VWS V14.01,2013-02-05 17:49:00,
2013-02-05 12:54:00,43.8,32.8,29.85,NNW,333,2.0,5.0,65,0.00,,---,0.00,VWS V14.01,2013-02-05 17:54:00,
2013-02-05 12:59:00,44.2,33.2,29.85,NNW,333,2.0,5.0,65,0.00,,---,0.00,VWS V14.01,2013-02-05 17:59:00,
2013-02-05 13:04:00,44.6,33.6,29.85,NNW,333,0.0,2.0,65,0.00,,---,0.00,VWS V14.01,2013-02-05 18:04:00,
2013-02-05 13:09:00,45.2,33.8,29.85,NNW,333,0.0,2.0,64,0.00,,---,0.00,VWS V14.01,2013-02-05 18:09:00,
2013-02-05 13:14:00,45.8,33.9,29.85,NNW,333,0.0,2.0,63,0.00,,---,0.00,VWS V14.01,2013-02-05 18:14:00,
2013-02-05 13:19:00,46.3,34.4,29.84,NNW,333,2.0,3.0,63,0.00,,---,0.00,VWS V14.01,2013-02-05 18:19:00,
2013-02-05 13:24:00,46.2,33.9,29.84,NNW,333,2.0,3.0,62,0.00,,---,0.00,VWS V14.01,2013-02-05 18:24:00,
2013-02-05 13:29:00,45.9,34.0,29.84,NNW,333,1.0,4.0,63,0.00,,---,0.00,VWS V14.01,2013-02-05 18:29:00,
2013-02-05 13:34:00,45.7,33.8,29.84,NNW,333,2.0,4.0,63,0.00,,---,0.00,VWS V14.01,2013-02-05 18:34:00,
2013-02-05 13:39:00,45.6,34.1,29.83,NNW,340,4.0,5.0,64,0.00,,---,0.00,VWS V14.01,2013-02-05 18:39:00,
2013-02-05 13:44:00,45.5,34.0,29.83,North,5,6.0,6.0,64,0.00,,---,0.00,VWS V14.01,2013-02-05 18:44:00,
2013-02-05 13:49:00,45.4,34.0,29.83,NNE,20,3.0,6.0,64,0.00,,---,0.00,VWS V14.01,2013-02-05 18:49:00,
2013-02-05 13:54:00,45.3,33.9,29.83,NNE,15,1.0,6.0,64,0.00,,---,0.00,VWS V14.01,2013-02-05 18:54:00,
2013-02-05 13:58:00,45.3,34.2,29.83,NW,320,1.0,6.0,65,0.00,,---,0.00,VWS V14.01,2013-02-05 18:58:00,
2013-02-05 14:04:00,45.4,34.3,29.83,NW,320,3.0,4.0,65,0.00,,---,0.00,VWS V14.01,2013-02-05 19:04:00,
2013-02-05 14:09:00,45.4,34.3,29.83,NNW,340,5.0,6.0,65,0.00,,---,0.00,VWS V14.01,2013-02-05 19:09:00,
2013-02-05 14:14:00,44.8,33.8,29.83,North,355,3.0,6.0,65,0.00,,---,0.00,VWS V14.01,2013-02-05 19:14:00,
2013-02-05 14:18:00,44.5,34.2,29.84,North,350,4.0,6.0,67,0.00,,---,0.00,VWS V14.01,2013-02-05 19:18:00,
2013-02-05 14:23:00,44.4,34.1,29.84,North,360,3.0,8.0,67,0.00,,---,0.00,VWS V14.01,2013-02-05 19:23:00,
2013-02-05 14:28:00,44.1,33.9,29.84,North,355,1.0,8.0,67,0.00,,---,0.00,VWS V14.01,2013-02-05 19:28:00,
2013-02-05 14:33:00,44.2,34.3,29.84,NE,39,0.0,3.0,68,0.00,,---,0.00,VWS V14.01,2013-02-05 19:33:00,
2013-02-05 14:38:00,44.5,34.6,29.84,SW,227,3.0,3.0,68,0.00,,---,0.00,VWS V14.01,2013-02-05 19:38:00,
2013-02-05 14:43:00,45.3,35.0,29.84,WNW,294,1.0,11.0,67,0.00,,---,0.00,VWS V14.01,2013-02-05 19:43:00,
2013-02-05 14:48:00,46.1,35.0,29.84,NW,320,6.0,11.0,65,0.00,,---,0.00,VWS V14.01,2013-02-05 19:48:00,
2013-02-05 14:53:00,46.8,35.7,29.84,WSW,237,7.0,14.0,65,0.00,,---,0.00,VWS V14.01,2013-02-05 19:53:00,
2013-02-05 14:58:00,47.5,35.5,29.84,WSW,249,5.0,14.0,63,0.00,,---,0.00,VWS V14.01,2013-02-05 19:58:00,
2013-02-05 15:03:00,47.9,35.9,29.84,SW,233,2.0,10.0,63,0.00,,---,0.00,VWS V14.01,2013-02-05 20:03:00,
2013-02-05 15:08:00,48.0,36.0,29.84,WSW,248,10.0,12.0,63,0.00,,---,0.00,VWS V14.01,2013-02-05 20:08:00,
2013-02-05 15:13:00,48.0,36.0,29.84,WSW,246,7.0,12.0,63,0.00,,---,0.00,VWS V14.01,2013-02-05 20:13:00,
2013-02-05 15:18:00,48.1,36.9,29.84,SW,233,2.0,12.0,65,0.00,,---,0.00,VWS V14.01,2013-02-05 20:18:00,
2013-02-05 15:23:00,48.2,38.2,29.84,WNW,294,3.0,12.0,68,0.00,,---,0.00,VWS V14.01,2013-02-05 20:23:00,
2013-02-05 15:28:00,48.3,36.7,29.84,West,278,2.0,12.0,64,0.00,,---,0.00,VWS V14.01,2013-02-05 20:28:00,
2013-02-05 15:33:00,48.4,36.4,29.84,West,260,2.0,9.0,63,0.00,,---,0.00,VWS V14.01,2013-02-05 20:33:00,
2013-02-05 15:38:00,48.3,36.3,29.84,West,266,4.0,16.0,63,0.00,,---,0.00,VWS V14.01,2013-02-05 20:38:00,
2013-02-05 15:43:00,48.3,36.3,29.84,SSW,192,6.0,16.0,63,0.00,,---,0.00,VWS V14.01,2013-02-05 20:43:00,
2013-02-05 15:48:00,48.2,36.2,29.84,South,189,6.0,16.0,63,0.00,,---,0.00,VWS V14.01,2013-02-05 20:48:00,
2013-02-05 15:53:00,48.1,36.1,29.84,SW,229,4.0,16.0,63,0.00,,---,0.00,VWS V14.01,2013-02-05 20:53:00,
2013-02-05 15:58:00,48.1,36.1,29.84,SSW,212,3.0,16.0,63,0.00,,---,0.00,VWS V14.01,2013-02-05 20:58:00,
2013-02-05 16:03:00,48.1,36.1,29.84,SSW,199,1.0,10.0,63,0.00,,---,0.00,VWS V14.01,2013-02-05 21:03:00,
2013-02-05 16:08:00,48.1,36.1,29.84,SW,217,2.0,10.0,63,0.00,,---,0.00,VWS V14.01,2013-02-05 21:08:00,
2013-02-05 16:13:00,48.2,36.2,29.84,SW,221,3.0,10.0,63,0.00,,---,0.00,VWS V14.01,2013-02-05 21:13:00,
2013-02-05 16:18:00,48.2,37.4,29.84,SW,231,7.0,10.0,66,0.00,,---,0.00,VWS V14.01,2013-02-05 21:18:00,
2013-02-05 16:23:00,48.2,35.8,29.85,SSW,204,2.0,10.0,62,0.00,,---,0.00,VWS V14.01,2013-02-05 21:23:00,
2013-02-05 16:28:00,48.2,35.8,29.85,West,280,2.0,10.0,62,0.00,,---,0.00,VWS V14.01,2013-02-05 21:28:00,
2013-02-05 16:33:00,48.1,35.7,29.85,West,269,3.0,7.0,62,0.00,,---,0.00,VWS V14.01,2013-02-05 21:33:00,
2013-02-05 16:38:00,48.0,35.6,29.85,SW,221,1.0,8.0,62,0.00,,---,0.00,VWS V14.01,2013-02-05 21:38:00,
2013-02-05 16:43:00,47.9,35.5,29.85,West,259,2.0,9.0,62,0.00,,---,0.00,VWS V14.01,2013-02-05 21:43:00,
2013-02-05 16:48:00,47.8,35.8,29.85,SW,229,4.0,9.0,63,0.00,,---,0.00,VWS V14.01,2013-02-05 21:48:00,
2013-02-05 16:53:00,47.7,35.7,29.85,WSW,244,1.0,9.0,63,0.00,,---,0.00,VWS V14.01,2013-02-05 21:53:00,
2013-02-05 16:58:00,47.7,35.7,29.85,SW,215,1.0,9.0,63,0.00,,---,0.00,VWS V14.01,2013-02-05 21:58:00,
2013-02-05 17:03:00,47.5,35.5,29.85,South,171,3.0,7.0,63,0.00,,---,0.00,VWS V14.01,2013-02-05 22:03:00,
2013-02-05 17:08:00,47.5,35.5,29.85,South,190,1.0,8.0,63,0.00,,---,0.00,VWS V14.01,2013-02-05 22:08:00,
2013-02-05 17:13:00,47.3,35.4,29.85,SW,220,5.0,10.0,63,0.00,,---,0.00,VWS V14.01,2013-02-05 22:13:00,
2013-02-05 17:18:00,47.3,35.8,29.86,South,188,3.0,10.0,64,0.00,,---,0.00,VWS V14.01,2013-02-05 22:18:00,
2013-02-05 17:23:00,47.2,35.7,29.86,West,271,5.0,10.0,64,0.00,,---,0.00,VWS V14.01,2013-02-05 22:23:00,
2013-02-05 17:28:00,47.1,35.6,29.86,SW,223,2.0,10.0,64,0.00,,---,0.00,VWS V14.01,2013-02-05 22:28:00,
2013-02-05 17:33:00,47.0,35.5,29.86,SW,222,4.0,5.0,64,0.00,,---,0.00,VWS V14.01,2013-02-05 22:33:00,
2013-02-05 17:38:00,46.9,35.4,29.86,SSW,207,1.0,5.0,64,0.00,,---,0.00,VWS V14.01,2013-02-05 22:38:00,
2013-02-05 17:43:00,46.7,35.6,29.86,SW,224,6.0,9.0,65,0.00,,---,0.00,VWS V14.01,2013-02-05 22:43:00,
2013-02-05 17:48:00,46.5,35.4,29.86,SW,222,2.0,9.0,65,0.00,,---,0.00,VWS V14.01,2013-02-05 22:48:00,
2013-02-05 17:53:00,46.4,35.3,29.86,SW,217,2.0,9.0,65,0.00,,---,0.00,VWS V14.01,2013-02-05 22:53:00,
2013-02-05 17:58:00,46.3,35.2,29.86,SSW,209,1.0,9.0,65,0.00,,---,0.00,VWS V14.01,2013-02-05 22:58:00,
2013-02-05 18:03:00,46.1,35.0,29.86,SW,223,1.0,5.0,65,0.00,,---,0.00,VWS V14.01,2013-02-05 23:03:00,
2013-02-05 18:08:00,46.1,35.0,29.87,WSW,240,2.0,5.0,65,0.00,,---,0.00,VWS V14.01,2013-02-05 23:08:00,
2013-02-05 18:13:00,46.0,34.9,29.87,SW,236,2.0,5.0,65,0.00,,---,0.00,VWS V14.01,2013-02-05 23:13:00,
2013-02-05 18:18:00,45.9,34.8,29.87,SW,236,0.0,5.0,65,0.00,,---,0.00,VWS V14.01,2013-02-05 23:18:00,
2013-02-05 18:23:00,45.7,35.0,29.87,SW,236,1.0,5.0,66,0.00,,---,0.00,VWS V14.01,2013-02-05 23:23:00,
2013-02-05 18:28:00,45.1,34.8,29.87,SW,236,0.0,5.0,67,0.00,,---,0.00,VWS V14.01,2013-02-05 23:28:00,
2013-02-05 18:33:00,44.5,34.2,29.88,WSW,250,1.0,2.0,67,0.00,,---,0.00,VWS V14.01,2013-02-05 23:33:00,
2013-02-05 18:38:00,43.5,34.0,29.88,WSW,250,2.0,3.0,69,0.00,,---,0.00,VWS V14.01,2013-02-05 23:38:00,
2013-02-05 18:43:00,42.8,33.7,29.88,WSW,249,0.0,3.0,70,0.00,,---,0.00,VWS V14.01,2013-02-05 23:43:00,
2013-02-05 18:48:00,42.7,34.0,29.88,WSW,249,0.0,3.0,71,0.00,,---,0.00,VWS V14.01,2013-02-05 23:48:00,
2013-02-05 18:53:00,42.2,33.5,29.88,NNW,343,1.0,5.0,71,0.00,,---,0.00,VWS V14.01,2013-02-05 23:53:00,
2013-02-05 18:58:00,41.4,33.1,29.88,NNW,342,0.0,5.0,72,0.00,,---,0.00,VWS V14.01,2013-02-05 23:58:00,
2013-02-05 19:03:00,40.9,32.9,29.89,NNW,343,0.0,0.0,73,0.00,,---,0.00,VWS V14.01,2013-02-06 00:03:00,
2013-02-05 19:08:00,40.0,32.4,29.89,NNW,342,0.0,2.0,74,0.00,,---,0.00,VWS V14.01,2013-02-06 00:08:00,
2013-02-05 19:13:00,39.3,32.0,29.90,WNW,302,2.0,5.0,75,0.00,,---,0.00,VWS V14.01,2013-02-06 00:13:00,
2013-02-05 19:18:00,38.8,31.9,29.89,WNW,302,1.0,5.0,76,0.00,,---,0.00,VWS V14.01,2013-02-06 00:18:00,
2013-02-05 19:23:00,38.5,31.9,29.89,WNW,302,0.0,5.0,77,0.00,,---,0.00,VWS V14.01,2013-02-06 00:23:00,
2013-02-05 19:28:00,38.4,32.2,29.89,WNW,302,0.0,5.0,78,0.00,,---,0.00,VWS V14.01,2013-02-06 00:28:00,
2013-02-05 19:33:00,38.2,32.3,29.89,WNW,302,0.0,1.0,79,0.00,,---,0.00,VWS V14.01,2013-02-06 00:33:00,
2013-02-05 19:38:00,38.1,32.2,29.90,WNW,302,0.0,2.0,79,0.00,,---,0.00,VWS V14.01,2013-02-06 00:38:00,
2013-02-05 19:43:00,37.9,32.0,29.90,WNW,302,2.0,2.0,79,0.00,,---,0.00,VWS V14.01,2013-02-06 00:43:00,
2013-02-05 19:48:00,37.7,32.1,29.90,WNW,302,0.0,2.0,80,0.00,,---,0.00,VWS V14.01,2013-02-06 00:48:00,
2013-02-05 19:53:00,37.5,31.9,29.90,WNW,302,2.0,3.0,80,0.00,,---,0.00,VWS V14.01,2013-02-06 00:53:00,
2013-02-05 19:58:00,37.5,32.2,29.90,WNW,302,0.0,3.0,81,0.00,,---,0.00,VWS V14.01,2013-02-06 00:58:00,
2013-02-05 20:03:00,37.4,32.1,29.90,WNW,302,0.0,3.0,81,0.00,,---,0.00,VWS V14.01,2013-02-06 01:03:00,
2013-02-05 20:08:00,37.3,32.0,29.90,WNW,302,0.0,3.0,81,0.00,,---,0.00,VWS V14.01,2013-02-06 01:08:00,
2013-02-05 20:13:00,37.2,31.9,29.90,WNW,302,0.0,3.0,81,0.00,,---,0.00,VWS V14.01,2013-02-06 01:13:00,
2013-02-05 20:18:00,37.2,32.2,29.90,WNW,302,1.0,3.0,82,0.00,,---,0.00,VWS V14.01,2013-02-06 01:18:00,
2013-02-05 20:23:00,37.2,32.2,29.91,WNW,302,0.0,3.0,82,0.00,,---,0.00,VWS V14.01,2013-02-06 01:23:00,
2013-02-05 20:28:00,37.2,32.2,29.91,WNW,302,1.0,3.0,82,0.00,,---,0.00,VWS V14.01,2013-02-06 01:28:00,
2013-02-05 20:33:00,36.9,31.9,29.91,WNW,302,0.0,0.0,82,0.00,,---,0.00,VWS V14.01,2013-02-06 01:33:00,
2013-02-05 20:38:00,36.8,31.8,29.91,WNW,302,1.0,1.0,82,0.00,,---,0.00,VWS V14.01,2013-02-06 01:38:00,
2013-02-05 20:43:00,37.2,32.5,29.91,WNW,302,2.0,2.0,83,0.00,,---,0.00,VWS V14.01,2013-02-06 01:43:00,
2013-02-05 20:48:00,37.2,32.2,29.91,WNW,302,0.0,3.0,82,0.00,,---,0.00,VWS V14.01,2013-02-06 01:48:00,
2013-02-05 20:53:00,37.2,32.2,29.91,WNW,302,0.0,3.0,82,0.00,,---,0.00,VWS V14.01,2013-02-06 01:53:00,
2013-02-05 20:58:00,37.1,32.1,29.91,WNW,302,0.0,3.0,82,0.00,,---,0.00,VWS V14.01,2013-02-06 01:58:00,
2013-02-05 21:03:00,37.3,32.3,29.91,WNW,302,1.0,2.0,82,0.00,,---,0.00,VWS V14.01,2013-02-06 02:03:00,
2013-02-05 21:08:00,37.3,32.3,29.91,WNW,302,0.0,2.0,82,0.00,,---,0.00,VWS V14.01,2013-02-06 02:08:00,
2013-02-05 21:13:00,37.0,32.0,29.92,WNW,302,0.0,2.0,82,0.00,,---,0.00,VWS V14.01,2013-02-06 02:13:00,
2013-02-05 21:18:00,36.8,31.8,29.91,WNW,302,0.0,2.0,82,0.00,,---,0.00,VWS V14.01,2013-02-06 02:18:00,
2013-02-05 21:23:00,36.9,31.9,29.92,WNW,302,1.0,2.0,82,0.00,,---,0.00,VWS V14.01,2013-02-06 02:23:00,
2013-02-05 21:28:00,37.0,31.7,29.92,WNW,302,0.0,2.0,81,0.00,,---,0.00,VWS V14.01,2013-02-06 02:28:00,
2013-02-05 21:33:00,37.1,31.8,29.92,WNW,302,0.0,1.0,81,0.00,,---,0.00,VWS V14.01,2013-02-06 02:33:00,
2013-02-05 21:38:00,37.3,31.7,29.92,WNW,302,0.0,1.0,80,0.00,,---,0.00,VWS V14.01,2013-02-06 02:38:00,
2013-02-05 21:43:00,37.3,31.7,29.92,WNW,302,0.0,1.0,80,0.00,,---,0.00,VWS V14.01,2013-02-06 02:43:00,
2013-02-05 21:48:00,37.3,31.4,29.92,WNW,302,0.0,1.0,79,0.00,,---,0.00,VWS V14.01,2013-02-06 02:48:00,
2013-02-05 21:53:00,37.1,31.2,29.93,WNW,302,0.0,1.0,79,0.00,,---,0.00,VWS V14.01,2013-02-06 02:53:00,
2013-02-05 21:58:00,36.8,30.9,29.93,WNW,302,0.0,1.0,79,0.00,,---,0.00,VWS V14.01,2013-02-06 02:58:00,
2013-02-05 22:03:00,36.4,30.5,29.93,WNW,302,0.0,1.0,79,0.00,,---,0.00,VWS V14.01,2013-02-06 03:03:00,
2013-02-05 22:08:00,36.5,30.9,29.93,WNW,302,0.0,2.0,80,0.00,,---,0.00,VWS V14.01,2013-02-06 03:08:00,
2013-02-05 22:13:00,36.6,31.0,29.93,WNW,302,0.0,2.0,80,0.00,,---,0.00,VWS V14.01,2013-02-06 03:13:00,
2013-02-05 22:18:00,36.5,30.9,29.93,WNW,302,0.0,2.0,80,0.00,,---,0.00,VWS V14.01,2013-02-06 03:18:00,
2013-02-05 22:23:00,36.4,30.8,29.93,WNW,294,2.0,2.0,80,0.00,,---,0.00,VWS V14.01,2013-02-06 03:23:00,
2013-02-05 22:28:00,36.3,31.0,29.93,WNW,294,0.0,2.0,81,0.00,,---,0.00,VWS V14.01,2013-02-06 03:28:00,
2013-02-05 22:33:00,36.4,31.1,29.93,WNW,294,0.0,0.0,81,0.00,,---,0.00,VWS V14.01,2013-02-06 03:33:00,
2013-02-05 22:38:00,36.4,31.1,29.93,WNW,294,0.0,0.0,81,0.00,,---,0.00,VWS V14.01,2013-02-06 03:38:00,
2013-02-05 22:43:00,36.3,31.0,29.93,WNW,294,0.0,0.0,81,0.00,,---,0.00,VWS V14.01,2013-02-06 03:43:00,
2013-02-05 22:48:00,36.2,30.9,29.93,WNW,294,0.0,1.0,81,0.00,,---,0.00,VWS V14.01,2013-02-06 03:48:00,
2013-02-05 22:53:00,35.9,31.0,29.94,WNW,294,0.0,3.0,82,0.00,,---,0.00,VWS V14.01,2013-02-06 03:53:00,
2013-02-05 22:58:00,35.7,30.8,29.94,WNW,294,0.0,3.0,82,0.00,,---,0.00,VWS V14.01,2013-02-06 03:58:00,
2013-02-05 23:03:00,35.6,31.0,29.93,WNW,294,0.0,0.0,83,0.00,,---,0.00,VWS V14.01,2013-02-06 04:03:00,
2013-02-05 23:08:00,35.6,31.0,29.94,WNW,294,0.0,1.0,83,0.00,,---,0.00,VWS V14.01,2013-02-06 04:08:00,
2013-02-05 23:13:00,35.6,31.2,29.94,WNW,294,0.0,1.0,84,0.00,,---,0.00,VWS V14.01,2013-02-06 04:13:00,
2013-02-05 23:18:00,35.6,31.2,29.94,WNW,294,1.0,1.0,84,0.00,,---,0.00,VWS V14.01,2013-02-06 04:18:00,
2013-02-05 23:23:00,35.6,31.2,29.94,WNW,294,1.0,2.0,84,0.00,,---,0.00,VWS V14.01,2013-02-06 04:23:00,
2013-02-05 23:28:00,35.6,31.2,29.94,WNW,294,1.0,2.0,84,0.00,,---,0.00,VWS V14.01,2013-02-06 04:28:00,
2013-02-05 23:33:00,35.7,31.4,29.94,WNW,294,0.0,1.0,84,0.00,,---,0.00,VWS V14.01,2013-02-06 04:33:00,
2013-02-05 23:38:00,35.7,31.4,29.94,WNW,294,0.0,3.0,84,0.00,,---,0.00,VWS V14.01,2013-02-06 04:38:00,
2013-02-05 23:43:00,35.9,31.5,29.94,WNW,294,1.0,3.0,84,0.00,,---,0.00,VWS V14.01,2013-02-06 04:43:00,
2013-02-05 23:48:00,36.0,31.6,29.94,South,191,4.0,4.0,84,0.00,,---,0.00,VWS V14.01,2013-02-06 04:48:00,
2013-02-05 23:53:00,36.2,31.5,29.94,South,191,0.0,4.0,83,0.00,,---,0.00,VWS V14.01,2013-02-06 04:53:00,
2013-02-05 23:58:00,36.6,31.9,29.95,South,191,0.0,4.0,83,0.00,,---,0.00,VWS V14.01,2013-02-06 04:58:00,